Terminal Aerodrome Forecast
Issued by NWS

Home | Current Version | Previous Version | Text Only | Print | Product List | Glossary Off
Versions: 1 2 3 4 5 6 7 8 9 10 11 12 13 14 15 16 17 18 19 20 21 22

000
FTUS43 KGRB 250400 AAB
TAFATW
TAF AMD
KATW 250432Z 2505/2524 14005KT P6SM BKN022
      TEMPO 2505/2509 6SM BR SCT018
     FM251300 20006KT 5SM HZ SCT030 BKN070
     FM251900 23010G18KT 6SM HZ SCT035 BKN090=

USA.gov is the U.S. government's official web portal to all federal, state and local government web resources and services.